sensor_id;sensor_type;location;lat;lon;timestamp;temperature;humidity
10512;DHT22;5304;48.604;2.096;2024-03-29T04:36:52;9.70;99.90
10512;DHT22;5304;48.604;2.096;2024-03-29T04:39:36;9.60;99.90
10512;DHT22;5304;48.604;2.096;2024-03-29T04:42:20;9.70;99.90
10512;DHT22;5304;48.604;2.096;2024-03-29T04:45:06;9.60;99.90
10512;DHT22;5304;48.604;2.096;2024-03-29T04:47:50;9.60;99.90
10512;DHT22;5304;48.604;2.096;2024-03-29T04:50:34;9.70;99.90
10512;DHT22;5304;48.604;2.096;2024-03-29T04:53:18;9.60;99.90
10512;DHT22;5304;48.604;2.096;2024-03-29T04:56:03;9.60;99.90
10512;DHT22;5304;48.604;2.096;2024-03-29T04:58:48;9.60;99.90
10512;DHT22;5304;48.604;2.096;2024-03-29T05:01:32;9.70;99.90
10512;DHT22;5304;48.604;2.096;2024-03-29T05:04:19;9.60;99.90
10512;DHT22;5304;48.604;2.096;2024-03-29T05:07:09;9.50;99.90
10512;DHT22;5304;48.604;2.096;2024-03-29T05:09:53;9.50;99.90
10512;DHT22;5304;48.604;2.096;2024-03-29T05:12:38;9.50;99.90
10512;DHT22;5304;48.604;2.096;2024-03-29T05:15:22;9.50;99.90
10512;DHT22;5304;48.604;2.096;2024-03-29T05:18:06;9.50;99.90
10512;DHT22;5304;48.604;2.096;2024-03-29T05:20:51;9.50;99.90
10512;DHT22;5304;48.604;2.096;2024-03-29T05:23:35;9.50;99.90
10512;DHT22;5304;48.604;2.096;2024-03-29T05:26:19;9.50;99.90
10512;DHT22;5304;48.604;2.096;2024-03-29T05:29:04;9.50;99.90
10512;DHT22;5304;48.604;2.096;2024-03-29T05:31:48;9.50;99.90
10512;DHT22;5304;48.604;2.096;2024-03-29T05:34:32;9.50;99.90
10512;DHT22;5304;48.604;2.096;2024-03-29T05:37:17;9.50;99.90
10512;DHT22;5304;48.604;2.096;2024-03-29T05:40:03;9.50;99.90
10512;DHT22;5304;48.604;2.096;2024-03-29T05:42:50;9.50;99.90
10512;DHT22;5304;48.604;2.096;2024-03-29T05:45:34;9.50;99.90
10512;DHT22;5304;48.604;2.096;2024-03-29T05:48:20;9.50;99.90
10512;DHT22;5304;48.604;2.096;2024-03-29T05:51:05;9.50;99.90
10512;DHT22;5304;48.604;2.096;2024-03-29T05:53:49;9.40;99.90
10512;DHT22;5304;48.604;2.096;2024-03-29T05:56:33;9.40;99.90
10512;DHT22;5304;48.604;2.096;2024-03-29T05:59:18;9.50;99.90
10512;DHT22;5304;48.604;2.096;2024-03-29T06:02:02;9.40;99.90
10512;DHT22;5304;48.604;2.096;2024-03-29T06:04:46;9.40;99.90
10512;DHT22;5304;48.604;2.096;2024-03-29T06:07:32;9.50;99.90
10512;DHT22;5304;48.604;2.096;2024-03-29T06:10:17;9.50;99.90
10512;DHT22;5304;48.604;2.096;2024-03-29T06:13:01;9.50;99.90
10512;DHT22;5304;48.604;2.096;2024-03-29T06:15:51;9.50;99.90
10512;DHT22;5304;48.604;2.096;2024-03-29T06:18:55;9.50;99.90
10512;DHT22;5304;48.604;2.096;2024-03-29T06:21:39;9.50;99.90
10512;DHT22;5304;48.604;2.096;2024-03-29T06:24:24;9.50;99.90
10512;DHT22;5304;48.604;2.096;2024-03-29T06:27:08;9.40;99.90
10512;DHT22;5304;48.604;2.096;2024-03-29T06:29:52;9.40;99.90
10512;DHT22;5304;48.604;2.096;2024-03-29T06:32:37;9.40;99.90
10512;DHT22;5304;48.604;2.096;2024-03-29T06:35:21;9.40;99.90
10512;DHT22;5304;48.604;2.096;2024-03-29T06:38:06;9.40;99.90
10512;DHT22;5304;48.604;2.096;2024-03-29T06:40:50;9.50;99.90
10512;DHT22;5304;48.604;2.096;2024-03-29T06:43:34;9.50;99.90
10512;DHT22;5304;48.604;2.096;2024-03-29T06:46:19;9.60;99.90
10512;DHT22;5304;48.604;2.096;2024-03-29T06:49:03;9.60;99.90
10512;DHT22;5304;48.604;2.096;2024-03-29T06:51:48;9.60;99.90
10512;DHT22;5304;48.604;2.096;2024-03-29T06:54:33;9.70;99.90
10512;DHT22;5304;48.604;2.096;2024-03-29T06:57:17;9.80;99.90
10512;DHT22;5304;48.604;2.096;2024-03-29T07:00:07;9.80;99.90
10512;DHT22;5304;48.604;2.096;2024-03-29T07:02:52;9.90;99.90
10512;DHT22;5304;48.604;2.096;2024-03-29T07:05:36;10.10;99.90
10512;DHT22;5304;48.604;2.096;2024-03-29T07:08:21;10.10;99.90
10512;DHT22;5304;48.604;2.096;2024-03-29T07:11:05;10.10;99.90
10512;DHT22;5304;48.604;2.096;2024-03-29T07:13:49;10.20;99.90
10512;DHT22;5304;48.604;2.096;2024-03-29T07:16:33;10.30;99.90
10512;DHT22;5304;48.604;2.096;2024-03-29T07:19:17;10.40;99.90
10512;DHT22;5304;48.604;2.096;2024-03-29T07:22:02;10.40;99.90
10512;DHT22;5304;48.604;2.096;2024-03-29T07:24:47;10.40;99.90
10512;DHT22;5304;48.604;2.096;2024-03-29T07:27:32;10.40;99.90
10512;DHT22;5304;48.604;2.096;2024-03-29T07:30:19;10.40;99.90
10512;DHT22;5304;48.604;2.096;2024-03-29T07:33:04;10.40;99.90
10512;DHT22;5304;48.604;2.096;2024-03-29T07:35:48;10.50;99.90
10512;DHT22;5304;48.604;2.096;2024-03-29T07:38:32;10.40;99.90
10512;DHT22;5304;48.604;2.096;2024-03-29T07:41:17;10.60;99.90
10512;DHT22;5304;48.604;2.096;2024-03-29T07:44:01;10.50;99.90
10512;DHT22;5304;48.604;2.096;2024-03-29T07:46:47;10.60;99.90
10512;DHT22;5304;48.604;2.096;2024-03-29T07:49:32;10.60;99.90
10512;DHT22;5304;48.604;2.096;2024-03-29T07:52:16;10.70;99.90
10512;DHT22;5304;48.604;2.096;2024-03-29T07:55:01;10.80;99.90
10512;DHT22;5304;48.604;2.096;2024-03-29T07:57:45;10.90;99.90
10512;DHT22;5304;48.604;2.096;2024-03-29T08:00:32;11.00;99.90
10512;DHT22;5304;48.604;2.096;2024-03-29T08:03:16;11.00;99.90
10512;DHT22;5304;48.604;2.096;2024-03-29T08:06:02;11.00;99.90
10512;DHT22;5304;48.604;2.096;2024-03-29T08:08:50;11.00;99.90
10512;DHT22;5304;48.604;2.096;2024-03-29T08:11:38;11.00;99.90
10512;DHT22;5304;48.604;2.096;2024-03-29T08:14:22;11.10;99.90
10512;DHT22;5304;48.604;2.096;2024-03-29T08:17:10;11.10;99.90
10512;DHT22;5304;48.604;2.096;2024-03-29T08:19:54;11.20;99.90
10512;DHT22;5304;48.604;2.096;2024-03-29T08:22:39;11.20;99.90
10512;DHT22;5304;48.604;2.096;2024-03-29T08:25:23;11.10;99.90
10512;DHT22;5304;48.604;2.096;2024-03-29T08:28:07;11.10;99.90
10512;DHT22;5304;48.604;2.096;2024-03-29T08:31:02;11.10;99.90
10512;DHT22;5304;48.604;2.096;2024-03-29T08:33:47;11.20;99.90
10512;DHT22;5304;48.604;2.096;2024-03-29T08:36:32;11.20;99.90
10512;DHT22;5304;48.604;2.096;2024-03-29T08:39:16;11.10;99.90
10512;DHT22;5304;48.604;2.096;2024-03-29T08:42:01;11.20;99.90
10512;DHT22;5304;48.604;2.096;2024-03-29T08:44:53;11.30;99.90
10512;DHT22;5304;48.604;2.096;2024-03-29T08:47:37;11.50;99.90
10512;DHT22;5304;48.604;2.096;2024-03-29T08:50:21;12.20;99.90
10512;DHT22;5304;48.604;2.096;2024-03-29T08:53:06;12.70;99.90
10512;DHT22;5304;48.604;2.096;2024-03-29T08:55:50;12.50;99.90
10512;DHT22;5304;48.604;2.096;2024-03-29T08:58:35;12.40;99.90
10512;DHT22;5304;48.604;2.096;2024-03-29T09:01:19;12.20;99.90
10512;DHT22;5304;48.604;2.096;2024-03-29T09:04:03;12.10;99.90
10512;DHT22;5304;48.604;2.096;2024-03-29T09:06:50;12.00;99.90
10512;DHT22;5304;48.604;2.096;2024-03-29T09:09:35;11.90;99.90
10512;DHT22;5304;48.604;2.096;2024-03-29T09:12:19;11.80;99.90
10512;DHT22;5304;48.604;2.096;2024-03-29T09:15:04;11.70;99.90
10512;DHT22;5304;48.604;2.096;2024-03-29T09:17:52;11.70;99.90
10512;DHT22;5304;48.604;2.096;2024-03-29T09:20:38;11.70;99.90
10512;DHT22;5304;48.604;2.096;2024-03-29T09:23:23;11.80;99.90
10512;DHT22;5304;48.604;2.096;2024-03-29T09:26:09;11.80;99.90
10512;DHT22;5304;48.604;2.096;2024-03-29T09:28:53;11.80;99.90
10512;DHT22;5304;48.604;2.096;2024-03-29T09:31:37;11.80;99.90
10512;DHT22;5304;48.604;2.096;2024-03-29T09:34:22;11.90;99.90
10512;DHT22;5304;48.604;2.096;2024-03-29T09:37:07;12.00;99.90
10512;DHT22;5304;48.604;2.096;2024-03-29T09:39:51;12.10;99.90
10512;DHT22;5304;48.604;2.096;2024-03-29T09:42:36;12.30;99.90
10512;DHT22;5304;48.604;2.096;2024-03-29T09:45:23;12.30;99.90
10512;DHT22;5304;48.604;2.096;2024-03-29T09:48:08;12.30;99.90
10512;DHT22;5304;48.604;2.096;2024-03-29T09:50:55;12.50;99.90
10512;DHT22;5304;48.604;2.096;2024-03-29T09:53:41;12.60;99.90
10512;DHT22;5304;48.604;2.096;2024-03-29T09:56:27;12.70;99.90
10512;DHT22;5304;48.604;2.096;2024-03-29T09:59:12;12.70;99.90
10512;DHT22;5304;48.604;2.096;2024-03-29T10:01:56;12.60;99.90
10512;DHT22;5304;48.604;2.096;2024-03-29T10:04:41;12.50;99.90
10512;DHT22;5304;48.604;2.096;2024-03-29T10:07:26;12.40;99.90
10512;DHT22;5304;48.604;2.096;2024-03-29T10:10:11;12.30;99.90
10512;DHT22;5304;48.604;2.096;2024-03-29T10:12:56;12.30;99.90
10512;DHT22;5304;48.604;2.096;2024-03-29T10:15:40;12.20;99.90
10512;DHT22;5304;48.604;2.096;2024-03-29T10:18:30;12.20;99.90
10512;DHT22;5304;48.604;2.096;2024-03-29T10:21:17;12.30;99.90
10512;DHT22;5304;48.604;2.096;2024-03-29T10:24:13;12.60;99.90
10512;DHT22;5304;48.604;2.096;2024-03-29T10:26:58;13.00;99.90
10512;DHT22;5304;48.604;2.096;2024-03-29T10:29:43;13.30;99.90
10512;DHT22;5304;48.604;2.096;2024-03-29T10:32:27;13.30;99.90
10512;DHT22;5304;48.604;2.096;2024-03-29T10:35:12;13.40;99.90
10512;DHT22;5304;48.604;2.096;2024-03-29T10:37:56;13.50;99.90
10512;DHT22;5304;48.604;2.096;2024-03-29T10:40:41;13.50;99.90
10512;DHT22;5304;48.604;2.096;2024-03-29T10:43:26;13.20;99.90
10512;DHT22;5304;48.604;2.096;2024-03-29T10:46:11;13.30;99.90
10512;DHT22;5304;48.604;2.096;2024-03-29T10:48:56;13.50;99.90
10512;DHT22;5304;48.604;2.096;2024-03-29T10:51:41;13.80;99.90
10512;DHT22;5304;48.604;2.096;2024-03-29T10:54:26;13.70;99.90
10512;DHT22;5304;48.604;2.096;2024-03-29T10:57:19;13.60;99.90
10512;DHT22;5304;48.604;2.096;2024-03-29T11:00:11;13.50;99.90
10512;DHT22;5304;48.604;2.096;2024-03-29T11:03:20;13.80;99.90
10512;DHT22;5304;48.604;2.096;2024-03-29T11:06:06;14.10;99.90
10512;DHT22;5304;48.604;2.096;2024-03-29T11:08:52;14.20;99.90
10512;DHT22;5304;48.604;2.096;2024-03-29T11:11:39;14.40;99.90
10512;DHT22;5304;48.604;2.096;2024-03-29T11:14:43;14.50;99.90
10512;DHT22;5304;48.604;2.096;2024-03-29T11:17:29;14.00;99.90
10512;DHT22;5304;48.604;2.096;2024-03-29T11:20:15;13.90;99.90
10512;DHT22;5304;48.604;2.096;2024-03-29T11:23:08;13.80;99.90
10512;DHT22;5304;48.604;2.096;2024-03-29T11:25:56;13.90;99.90
10512;DHT22;5304;48.604;2.096;2024-03-29T11:28:52;14.00;99.90
10512;DHT22;5304;48.604;2.096;2024-03-29T11:31:38;14.20;99.90
10512;DHT22;5304;48.604;2.096;2024-03-29T11:34:23;14.60;99.90
10512;DHT22;5304;48.604;2.096;2024-03-29T11:37:11;14.50;99.90
10512;DHT22;5304;48.604;2.096;2024-03-29T11:39:55;14.60;99.90
10512;DHT22;5304;48.604;2.096;2024-03-29T11:42:47;14.70;99.90
10512;DHT22;5304;48.604;2.096;2024-03-29T11:45:31;15.00;99.90
10512;DHT22;5304;48.604;2.096;2024-03-29T11:48:23;14.90;99.90
10512;DHT22;5304;48.604;2.096;2024-03-29T11:51:11;15.00;99.90
10512;DHT22;5304;48.604;2.096;2024-03-29T11:54:00;15.00;99.90
10512;DHT22;5304;48.604;2.096;2024-03-29T11:56:44;15.00;99.90
10512;DHT22;5304;48.604;2.096;2024-03-29T11:59:28;14.80;99.90
10512;DHT22;5304;48.604;2.096;2024-03-29T12:02:13;14.70;99.90
10512;DHT22;5304;48.604;2.096;2024-03-29T12:04:58;14.60;99.90
10512;DHT22;5304;48.604;2.096;2024-03-29T12:07:43;15.00;99.90
10512;DHT22;5304;48.604;2.096;2024-03-29T12:10:30;15.40;99.90
10512;DHT22;5304;48.604;2.096;2024-03-29T12:13:16;15.50;99.90
10512;DHT22;5304;48.604;2.096;2024-03-29T12:16:01;15.50;99.90
10512;DHT22;5304;48.604;2.096;2024-03-29T12:18:47;15.20;99.90
10512;DHT22;5304;48.604;2.096;2024-03-29T12:21:32;15.00;99.90
10512;DHT22;5304;48.604;2.096;2024-03-29T12:24:17;15.00;99.90
10512;DHT22;5304;48.604;2.096;2024-03-29T12:27:01;15.10;99.90
10512;DHT22;5304;48.604;2.096;2024-03-29T12:29:46;15.30;99.90
10512;DHT22;5304;48.604;2.096;2024-03-29T12:32:30;15.70;99.90
10512;DHT22;5304;48.604;2.096;2024-03-29T12:35:17;15.90;99.90
10512;DHT22;5304;48.604;2.096;2024-03-29T12:38:03;15.90;99.90
10512;DHT22;5304;48.604;2.096;2024-03-29T12:40:49;15.80;99.90
10512;DHT22;5304;48.604;2.096;2024-03-29T12:43:34;15.70;99.90
10512;DHT22;5304;48.604;2.096;2024-03-29T12:46:18;15.60;99.90
10512;DHT22;5304;48.604;2.096;2024-03-29T12:49:03;15.40;99.90
10512;DHT22;5304;48.604;2.096;2024-03-29T12:51:47;15.10;99.90
10512;DHT22;5304;48.604;2.096;2024-03-29T12:54:31;15.00;99.90
10512;DHT22;5304;48.604;2.096;2024-03-29T12:57:16;15.00;99.90
10512;DHT22;5304;48.604;2.096;2024-03-29T13:00:00;15.10;99.90
10512;DHT22;5304;48.604;2.096;2024-03-29T13:02:45;15.10;99.90
10512;DHT22;5304;48.604;2.096;2024-03-29T13:05:29;15.10;99.90
10512;DHT22;5304;48.604;2.096;2024-03-29T13:08:18;15.00;99.90
10512;DHT22;5304;48.604;2.096;2024-03-29T13:11:03;15.00;99.90
10512;DHT22;5304;48.604;2.096;2024-03-29T13:13:47;15.10;99.90
10512;DHT22;5304;48.604;2.096;2024-03-29T13:16:31;15.40;99.90
10512;DHT22;5304;48.604;2.096;2024-03-29T13:19:15;15.40;99.90
10512;DHT22;5304;48.604;2.096;2024-03-29T13:22:00;15.30;99.90
10512;DHT22;5304;48.604;2.096;2024-03-29T13:24:44;15.20;99.90
10512;DHT22;5304;48.604;2.096;2024-03-29T13:27:29;15.30;99.90
10512;DHT22;5304;48.604;2.096;2024-03-29T13:30:13;15.30;99.90
10512;DHT22;5304;48.604;2.096;2024-03-29T13:33:00;15.30;99.90
10512;DHT22;5304;48.604;2.096;2024-03-29T13:35:45;15.20;99.90
10512;DHT22;5304;48.604;2.096;2024-03-29T13:38:29;15.20;99.90
10512;DHT22;5304;48.604;2.096;2024-03-29T13:41:13;15.20;99.90
10512;DHT22;5304;48.604;2.096;2024-03-29T13:44:01;15.10;99.90
10512;DHT22;5304;48.604;2.096;2024-03-29T13:46:49;15.00;99.90
10512;DHT22;5304;48.604;2.096;2024-03-29T13:49:35;15.00;99.90
10512;DHT22;5304;48.604;2.096;2024-03-29T13:52:20;14.90;99.90
10512;DHT22;5304;48.604;2.096;2024-03-29T13:55:05;14.90;99.90
10512;DHT22;5304;48.604;2.096;2024-03-29T13:57:49;14.80;99.90
10512;DHT22;5304;48.604;2.096;2024-03-29T14:00:33;14.70;99.90
10512;DHT22;5304;48.604;2.096;2024-03-29T14:03:18;14.70;99.90
10512;DHT22;5304;48.604;2.096;2024-03-29T14:06:03;14.70;99.90
10512;DHT22;5304;48.604;2.096;2024-03-29T14:08:49;14.80;99.90
10512;DHT22;5304;48.604;2.096;2024-03-29T14:11:33;14.80;99.90
10512;DHT22;5304;48.604;2.096;2024-03-29T14:14:17;14.70;99.90
10512;DHT22;5304;48.604;2.096;2024-03-29T14:17:02;14.70;99.90
10512;DHT22;5304;48.604;2.096;2024-03-29T14:19:51;14.60;99.90
10512;DHT22;5304;48.604;2.096;2024-03-29T14:22:35;14.60;99.90
10512;DHT22;5304;48.604;2.096;2024-03-29T14:25:21;14.60;99.90
10512;DHT22;5304;48.604;2.096;2024-03-29T14:28:06;14.50;99.90
10512;DHT22;5304;48.604;2.096;2024-03-29T14:30:50;14.50;99.90
10512;DHT22;5304;48.604;2.096;2024-03-29T14:33:34;14.50;99.90
10512;DHT22;5304;48.604;2.096;2024-03-29T14:36:19;14.50;99.90
10512;DHT22;5304;48.604;2.096;2024-03-29T14:39:04;14.30;99.90
10512;DHT22;5304;48.604;2.096;2024-03-29T14:41:48;14.30;99.90
10512;DHT22;5304;48.604;2.096;2024-03-29T14:44:34;14.10;99.90
10512;DHT22;5304;48.604;2.096;2024-03-29T14:47:18;14.00;99.90
10512;DHT22;5304;48.604;2.096;2024-03-29T14:50:03;13.90;99.90
10512;DHT22;5304;48.604;2.096;2024-03-29T14:52:48;13.90;99.90
10512;DHT22;5304;48.604;2.096;2024-03-29T14:55:33;13.70;99.90
10512;DHT22;5304;48.604;2.096;2024-03-29T14:58:17;13.20;99.90
10512;DHT22;5304;48.604;2.096;2024-03-29T15:01:01;12.90;99.90
10512;DHT22;5304;48.604;2.096;2024-03-29T15:03:46;12.70;99.90
10512;DHT22;5304;48.604;2.096;2024-03-29T15:06:30;12.40;99.90
10512;DHT22;5304;48.604;2.096;2024-03-29T15:09:15;12.30;99.90
10512;DHT22;5304;48.604;2.096;2024-03-29T15:11:59;12.20;99.90
10512;DHT22;5304;48.604;2.096;2024-03-29T15:14:44;12.00;99.90
10512;DHT22;5304;48.604;2.096;2024-03-29T15:17:28;11.80;99.90
10512;DHT22;5304;48.604;2.096;2024-03-29T15:20:12;11.60;99.90
10512;DHT22;5304;48.604;2.096;2024-03-29T15:22:57;11.40;99.90
10512;DHT22;5304;48.604;2.096;2024-03-29T15:25:43;11.60;99.90
10512;DHT22;5304;48.604;2.096;2024-03-29T15:28:30;11.70;99.90
10512;DHT22;5304;48.604;2.096;2024-03-29T15:31:42;11.60;99.90
10512;DHT22;5304;48.604;2.096;2024-03-29T15:34:31;11.70;99.90
10512;DHT22;5304;48.604;2.096;2024-03-29T15:37:15;11.60;99.90
10512;DHT22;5304;48.604;2.096;2024-03-29T15:40:00;11.60;99.90
10512;DHT22;5304;48.604;2.096;2024-03-29T15:42:45;11.70;99.90
10512;DHT22;5304;48.604;2.096;2024-03-29T15:45:29;11.70;99.90
10512;DHT22;5304;48.604;2.096;2024-03-29T15:48:13;11.70;99.90
10512;DHT22;5304;48.604;2.096;2024-03-29T15:50:58;11.90;99.90
10512;DHT22;5304;48.604;2.096;2024-03-29T15:53:42;12.00;99.90
10512;DHT22;5304;48.604;2.096;2024-03-29T15:56:27;11.80;99.90
10512;DHT22;5304;48.604;2.096;2024-03-29T15:59:13;11.80;99.90
10512;DHT22;5304;48.604;2.096;2024-03-29T16:01:57;11.70;99.90
10512;DHT22;5304;48.604;2.096;2024-03-29T16:04:43;11.80;99.90
10512;DHT22;5304;48.604;2.096;2024-03-29T16:07:28;11.80;99.90
10512;DHT22;5304;48.604;2.096;2024-03-29T16:10:13;11.70;99.90
10512;DHT22;5304;48.604;2.096;2024-03-29T16:12:57;11.60;99.90
10512;DHT22;5304;48.604;2.096;2024-03-29T16:15:45;11.70;99.90
10512;DHT22;5304;48.604;2.096;2024-03-29T16:18:31;11.60;99.90
10512;DHT22;5304;48.604;2.096;2024-03-29T16:21:16;11.50;99.90
10512;DHT22;5304;48.604;2.096;2024-03-29T16:23:59;11.50;99.90
10512;DHT22;5304;48.604;2.096;2024-03-29T16:26:44;11.60;99.90
10512;DHT22;5304;48.604;2.096;2024-03-29T16:29:28;11.50;99.90
10512;DHT22;5304;48.604;2.096;2024-03-29T16:32:12;11.50;99.90
10512;DHT22;5304;48.604;2.096;2024-03-29T16:34:57;11.50;99.90
10512;DHT22;5304;48.604;2.096;2024-03-29T16:37:41;11.50;99.90
10512;DHT22;5304;48.604;2.096;2024-03-29T16:40:31;11.60;99.90
10512;DHT22;5304;48.604;2.096;2024-03-29T16:43:15;11.60;99.90
10512;DHT22;5304;48.604;2.096;2024-03-29T16:45:59;11.60;99.90
10512;DHT22;5304;48.604;2.096;2024-03-29T16:48:43;11.50;99.90
10512;DHT22;5304;48.604;2.096;2024-03-29T16:51:28;11.40;99.90
10512;DHT22;5304;48.604;2.096;2024-03-29T16:54:12;11.40;99.90
10512;DHT22;5304;48.604;2.096;2024-03-29T16:56:57;11.50;99.90
10512;DHT22;5304;48.604;2.096;2024-03-29T16:59:41;11.40;99.90
10512;DHT22;5304;48.604;2.096;2024-03-29T17:02:27;11.30;99.90
10512;DHT22;5304;48.604;2.096;2024-03-29T17:05:12;11.30;99.90
10512;DHT22;5304;48.604;2.096;2024-03-29T17:07:55;11.30;99.90
10512;DHT22;5304;48.604;2.096;2024-03-29T17:10:40;11.20;99.90
10512;DHT22;5304;48.604;2.096;2024-03-29T17:13:24;11.10;99.90
10512;DHT22;5304;48.604;2.096;2024-03-29T17:16:09;11.10;99.90
10512;DHT22;5304;48.604;2.096;2024-03-29T17:18:53;11.20;99.90
10512;DHT22;5304;48.604;2.096;2024-03-29T17:21:37;11.20;99.90
10512;DHT22;5304;48.604;2.096;2024-03-29T17:24:21;11.10;99.90
10512;DHT22;5304;48.604;2.096;2024-03-29T17:27:06;11.00;99.90
10512;DHT22;5304;48.604;2.096;2024-03-29T17:29:50;11.10;99.90
10512;DHT22;5304;48.604;2.096;2024-03-29T17:32:34;11.00;99.90
10512;DHT22;5304;48.604;2.096;2024-03-29T17:35:18;10.90;99.90
10512;DHT22;5304;48.604;2.096;2024-03-29T17:38:03;10.90;99.90
10512;DHT22;5304;48.604;2.096;2024-03-29T17:40:47;10.80;99.90
10512;DHT22;5304;48.604;2.096;2024-03-29T17:43:31;10.80;99.90
10512;DHT22;5304;48.604;2.096;2024-03-29T17:46:16;10.70;99.90
10512;DHT22;5304;48.604;2.096;2024-03-29T17:49:00;10.60;99.90
10512;DHT22;5304;48.604;2.096;2024-03-29T17:51:45;10.60;99.90
10512;DHT22;5304;48.604;2.096;2024-03-29T17:54:29;10.60;99.90
10512;DHT22;5304;48.604;2.096;2024-03-29T17:57:13;10.50;99.90
10512;DHT22;5304;48.604;2.096;2024-03-29T17:59:57;10.40;99.90
10512;DHT22;5304;48.604;2.096;2024-03-29T18:02:44;10.30;99.90
10512;DHT22;5304;48.604;2.096;2024-03-29T18:05:28;10.20;99.90
10512;DHT22;5304;48.604;2.096;2024-03-29T18:08:12;10.20;99.90
10512;DHT22;5304;48.604;2.096;2024-03-29T18:10:56;10.10;99.90
10512;DHT22;5304;48.604;2.096;2024-03-29T18:13:40;9.90;99.90
10512;DHT22;5304;48.604;2.096;2024-03-29T18:16:25;10.00;99.90
10512;DHT22;5304;48.604;2.096;2024-03-29T18:19:09;9.90;99.90
10512;DHT22;5304;48.604;2.096;2024-03-29T18:21:53;9.90;99.90
10512;DHT22;5304;48.604;2.096;2024-03-29T18:24:39;9.80;99.90
10512;DHT22;5304;48.604;2.096;2024-03-29T18:27:23;9.80;99.90
10512;DHT22;5304;48.604;2.096;2024-03-29T18:30:07;9.90;99.90
10512;DHT22;5304;48.604;2.096;2024-03-29T18:32:52;9.70;99.90
10512;DHT22;5304;48.604;2.096;2024-03-29T18:35:36;9.70;99.90
10512;DHT22;5304;48.604;2.096;2024-03-29T18:38:21;9.70;99.90
10512;DHT22;5304;48.604;2.096;2024-03-29T18:41:05;9.80;99.90
10512;DHT22;5304;48.604;2.096;2024-03-29T18:43:50;9.80;99.90
10512;DHT22;5304;48.604;2.096;2024-03-29T18:46:34;9.80;99.90
10512;DHT22;5304;48.604;2.096;2024-03-29T18:49:18;9.80;99.90
10512;DHT22;5304;48.604;2.096;2024-03-29T18:52:03;9.80;99.90
10512;DHT22;5304;48.604;2.096;2024-03-29T18:54:48;9.80;99.90
10512;DHT22;5304;48.604;2.096;2024-03-29T18:57:32;9.70;99.90
10512;DHT22;5304;48.604;2.096;2024-03-29T19:00:17;9.80;99.90
10512;DHT22;5304;48.604;2.096;2024-03-29T19:03:01;9.70;99.90
10512;DHT22;5304;48.604;2.096;2024-03-29T19:05:46;9.60;99.90
10512;DHT22;5304;48.604;2.096;2024-03-29T19:08:31;9.60;99.90
10512;DHT22;5304;48.604;2.096;2024-03-29T19:11:15;9.60;99.90
10512;DHT22;5304;48.604;2.096;2024-03-29T19:14:07;9.60;99.90
10512;DHT22;5304;48.604;2.096;2024-03-29T19:16:51;9.50;99.90
10512;DHT22;5304;48.604;2.096;2024-03-29T19:19:36;9.40;99.90
10512;DHT22;5304;48.604;2.096;2024-03-29T19:22:20;9.30;99.90
10512;DHT22;5304;48.604;2.096;2024-03-29T19:25:05;9.30;99.90
10512;DHT22;5304;48.604;2.096;2024-03-29T19:27:51;9.40;99.90
10512;DHT22;5304;48.604;2.096;2024-03-29T19:30:35;9.40;99.90
10512;DHT22;5304;48.604;2.096;2024-03-29T19:33:20;9.30;99.90
10512;DHT22;5304;48.604;2.096;2024-03-29T19:36:04;9.30;99.90
10512;DHT22;5304;48.604;2.096;2024-03-29T19:38:49;9.40;99.90
10512;DHT22;5304;48.604;2.096;2024-03-29T19:41:33;9.30;99.90
10512;DHT22;5304;48.604;2.096;2024-03-29T19:44:17;9.30;99.90
10512;DHT22;5304;48.604;2.096;2024-03-29T19:47:02;9.30;99.90
10512;DHT22;5304;48.604;2.096;2024-03-29T19:49:46;9.10;99.90
10512;DHT22;5304;48.604;2.096;2024-03-29T19:52:30;9.10;99.90
10512;DHT22;5304;48.604;2.096;2024-03-29T19:55:15;9.10;99.90
10512;DHT22;5304;48.604;2.096;2024-03-29T19:58:03;9.30;99.90
10512;DHT22;5304;48.604;2.096;2024-03-29T20:00:47;9.10;99.90
10512;DHT22;5304;48.604;2.096;2024-03-29T20:03:31;9.10;99.90
10512;DHT22;5304;48.604;2.096;2024-03-29T20:06:15;9.10;99.90
10512;DHT22;5304;48.604;2.096;2024-03-29T20:09:00;9.00;99.90
10512;DHT22;5304;48.604;2.096;2024-03-29T20:11:46;9.00;99.90
10512;DHT22;5304;48.604;2.096;2024-03-29T20:14:31;9.00;99.90
10512;DHT22;5304;48.604;2.096;2024-03-29T20:17:16;9.10;99.90
10512;DHT22;5304;48.604;2.096;2024-03-29T20:20:00;9.10;99.90
10512;DHT22;5304;48.604;2.096;2024-03-29T20:22:45;9.20;99.90
10512;DHT22;5304;48.604;2.096;2024-03-29T20:25:31;9.10;99.90
10512;DHT22;5304;48.604;2.096;2024-03-29T20:28:15;9.10;99.90
10512;DHT22;5304;48.604;2.096;2024-03-29T20:31:04;9.10;99.90
10512;DHT22;5304;48.604;2.096;2024-03-29T20:33:48;9.10;99.90
10512;DHT22;5304;48.604;2.096;2024-03-29T20:36:32;9.10;99.90
10512;DHT22;5304;48.604;2.096;2024-03-29T20:39:17;9.00;99.90
10512;DHT22;5304;48.604;2.096;2024-03-29T20:42:01;9.00;99.90
10512;DHT22;5304;48.604;2.096;2024-03-29T20:44:46;9.10;99.90
10512;DHT22;5304;48.604;2.096;2024-03-29T20:47:30;9.10;99.90
10512;DHT22;5304;48.604;2.096;2024-03-29T20:50:15;9.10;99.90
10512;DHT22;5304;48.604;2.096;2024-03-29T20:52:59;9.00;99.90
10512;DHT22;5304;48.604;2.096;2024-03-29T20:55:44;9.00;99.90
10512;DHT22;5304;48.604;2.096;2024-03-29T20:58:29;9.00;99.90
10512;DHT22;5304;48.604;2.096;2024-03-29T21:01:13;9.10;99.90
10512;DHT22;5304;48.604;2.096;2024-03-29T21:04:17;9.00;99.90
10512;DHT22;5304;48.604;2.096;2024-03-29T21:07:21;8.90;99.90
10512;DHT22;5304;48.604;2.096;2024-03-29T21:10:05;8.80;99.90
10512;DHT22;5304;48.604;2.096;2024-03-29T21:12:50;8.80;99.90
10512;DHT22;5304;48.604;2.096;2024-03-29T21:15:34;8.80;99.90
10512;DHT22;5304;48.604;2.096;2024-03-29T21:18:19;8.70;99.90
10512;DHT22;5304;48.604;2.096;2024-03-29T21:21:03;8.80;99.90
10512;DHT22;5304;48.604;2.096;2024-03-29T21:23:48;8.90;99.90
10512;DHT22;5304;48.604;2.096;2024-03-29T21:26:32;8.80;99.90
10512;DHT22;5304;48.604;2.096;2024-03-29T21:29:16;9.00;99.90
10512;DHT22;5304;48.604;2.096;2024-03-29T21:32:00;8.90;99.90
10512;DHT22;5304;48.604;2.096;2024-03-29T21:34:45;8.90;99.90
10512;DHT22;5304;48.604;2.096;2024-03-29T21:37:33;8.90;99.90
10512;DHT22;5304;48.604;2.096;2024-03-29T21:40:17;8.90;99.90
10512;DHT22;5304;48.604;2.096;2024-03-29T21:43:01;9.00;99.90
10512;DHT22;5304;48.604;2.096;2024-03-29T21:45:46;8.90;99.90
10512;DHT22;5304;48.604;2.096;2024-03-29T21:48:30;8.90;99.90
10512;DHT22;5304;48.604;2.096;2024-03-29T21:51:14;9.00;99.90
10512;DHT22;5304;48.604;2.096;2024-03-29T21:54:00;9.00;99.90
10512;DHT22;5304;48.604;2.096;2024-03-29T21:56:44;9.00;99.90
10512;DHT22;5304;48.604;2.096;2024-03-29T21:59:28;8.80;99.90
10512;DHT22;5304;48.604;2.096;2024-03-29T22:02:12;8.80;99.90
10512;DHT22;5304;48.604;2.096;2024-03-29T22:04:58;8.90;99.90
10512;DHT22;5304;48.604;2.096;2024-03-29T22:07:42;9.00;99.90
10512;DHT22;5304;48.604;2.096;2024-03-29T22:10:30;8.90;99.90
10512;DHT22;5304;48.604;2.096;2024-03-29T22:13:14;8.80;99.90
